Portada
METAR-TAF:

METAR-TAF

Aeroports :

Batam, Indonèsia

latitud: 01-07-15N, longitud: 104-07-07E, altitud: 38 m

Observació

L'informe es va fer fa 13 hores i 5 minuts, a les 08:30 UTC
Vent 5 kt del Nord
Temperatura 24°C
Humitat 94%
Pressió 1011 hPa
Visibilitat: 7000 m
Núvols disperses a una alçada de 1400 ft
pluja

METAR: WIDD 110830Z 01005KT 7000 -RA SCT014 24/23 Q1011 TEMPO TL1000 -RA

Hora: 04:35 (21:35 UTC)

Pronòstic

L'informe es va fer fa 10 hores i 35 minuts, a les 11:00 UTC
Pronòstic vàlid del 11 a les 12 UTC al 12 a les 12 UTC
Vent 4 kt del Nord
Visibilitat: 9000 m
Núvols disperses a una alçada de 1300 ft
Probabilitat 30% :
Temporalment
l' 11 a les 12 UTC al 11 a les 15 UTC
Visibilitat: 7000 m
pluja
Evolucionant progressivament
l' 11 a les 15 UTC al 11 a les 16 UTC
Vent 3 kt del Nord-Est

TAF: WIDD 111100Z 1112/1212 35004KT 9000 SCT013 PROB30 TEMPO 1112/1115 7000 -RA BECMG 1115/1116 05003KT

Observacions i pronòstics meteorològics de més de 4000 aeroports (METAR i TAF).

Les estacions disponibles són els punts grocs i vermells al mapa.

Posi el ratolí al punt desitjat per veure el nom de l'estació.

Feu clic per veure les observacions i els pronòstics meteorològics.

Per canviar el mapa: feu clic els botons verds amb una creu de color negre per apropar; al botó verd amb un guió per allunyar la imatge; o en les fletxes verdes per a mapes adjacents.


METAR-TAF: